sensor_id;sensor_type;location;lat;lon;timestamp;pressure;altitude;pressure_sealevel;temperature;humidity
77023;BME280;65952;51.440;-2.054;2023-04-03T00:01:03;101784.09;;;3.72;73.95
77023;BME280;65952;51.440;-2.054;2023-04-03T00:03:29;101782.66;;;3.66;74.18
77023;BME280;65952;51.440;-2.054;2023-04-03T00:05:55;101779.91;;;3.68;73.96
77023;BME280;65952;51.440;-2.054;2023-04-03T00:08:20;101778.88;;;3.70;73.70
77023;BME280;65952;51.440;-2.054;2023-04-03T00:10:46;101773.75;;;3.67;73.59
77023;BME280;65952;51.440;-2.054;2023-04-03T00:13:12;101779.22;;;3.64;74.01
77023;BME280;65952;51.440;-2.054;2023-04-03T00:15:38;101780.06;;;3.65;73.79
77023;BME280;65952;51.440;-2.054;2023-04-03T00:18:04;101776.47;;;3.66;73.77
77023;BME280;65952;51.440;-2.054;2023-04-03T00:20:30;101785.91;;;3.55;73.98
77023;BME280;65952;51.440;-2.054;2023-04-03T00:22:55;101785.06;;;3.39;74.81
77023;BME280;65952;51.440;-2.054;2023-04-03T00:25:21;101774.44;;;3.39;74.66
77023;BME280;65952;51.440;-2.054;2023-04-03T00:27:47;101774.78;;;3.33;74.96
77023;BME280;65952;51.440;-2.054;2023-04-03T00:30:15;101780.59;;;3.39;74.76
77023;BME280;65952;51.440;-2.054;2023-04-03T00:32:41;101776.50;;;3.34;75.00
77023;BME280;65952;51.440;-2.054;2023-04-03T00:35:07;101776.59;;;3.32;74.74
77023;BME280;65952;51.440;-2.054;2023-04-03T00:37:33;101773.75;;;3.35;74.76
77023;BME280;65952;51.440;-2.054;2023-04-03T00:39:58;101774.19;;;3.44;74.59
77023;BME280;65952;51.440;-2.054;2023-04-03T00:42:24;101767.44;;;3.54;74.01
77023;BME280;65952;51.440;-2.054;2023-04-03T00:47:18;101777.88;;;3.25;74.71
77023;BME280;65952;51.440;-2.054;2023-04-03T00:49:44;101783.88;;;3.29;74.79
77023;BME280;65952;51.440;-2.054;2023-04-03T00:52:14;101774.94;;;3.46;74.21
77023;BME280;65952;51.440;-2.054;2023-04-03T00:54:42;101777.00;;;3.40;74.24
77023;BME280;65952;51.440;-2.054;2023-04-03T00:57:10;101787.28;;;3.31;74.33
77023;BME280;65952;51.440;-2.054;2023-04-03T00:59:39;101788.56;;;3.23;74.56
77023;BME280;65952;51.440;-2.054;2023-04-03T01:02:07;101787.97;;;3.18;74.70
77023;BME280;65952;51.440;-2.054;2023-04-03T01:04:33;101780.25;;;3.14;74.70
77023;BME280;65952;51.440;-2.054;2023-04-03T01:09:31;101782.44;;;3.05;75.15
77023;BME280;65952;51.440;-2.054;2023-04-03T01:12:14;101782.63;;;3.02;75.50
77023;BME280;65952;51.440;-2.054;2023-04-03T01:14:41;101790.25;;;3.08;75.19
77023;BME280;65952;51.440;-2.054;2023-04-03T01:28:07;101788.31;;;3.12;74.45
77023;BME280;65952;51.440;-2.054;2023-04-03T01:30:46;101781.50;;;3.06;74.63
77023;BME280;65952;51.440;-2.054;2023-04-03T01:33:13;101784.69;;;3.13;74.05
77023;BME280;65952;51.440;-2.054;2023-04-03T01:35:39;101782.72;;;3.17;74.06
77023;BME280;65952;51.440;-2.054;2023-04-03T01:38:05;101776.13;;;3.08;74.46
77023;BME280;65952;51.440;-2.054;2023-04-03T01:40:31;101783.47;;;3.03;74.45
77023;BME280;65952;51.440;-2.054;2023-04-03T01:42:56;101773.03;;;3.00;74.57
77023;BME280;65952;51.440;-2.054;2023-04-03T01:45:22;101774.06;;;2.97;74.90
77023;BME280;65952;51.440;-2.054;2023-04-03T01:47:47;101771.66;;;2.92;74.79
77023;BME280;65952;51.440;-2.054;2023-04-03T01:50:12;101773.97;;;2.99;74.85
77023;BME280;65952;51.440;-2.054;2023-04-03T01:52:38;101768.38;;;2.87;74.86
77023;BME280;65952;51.440;-2.054;2023-04-03T01:55:03;101769.50;;;2.83;75.21
77023;BME280;65952;51.440;-2.054;2023-04-03T01:57:29;101772.28;;;2.80;75.14
77023;BME280;65952;51.440;-2.054;2023-04-03T01:59:54;101770.84;;;2.74;75.23
77023;BME280;65952;51.440;-2.054;2023-04-03T02:02:19;101773.63;;;2.71;75.22
77023;BME280;65952;51.440;-2.054;2023-04-03T02:04:45;101771.41;;;2.64;75.40
77023;BME280;65952;51.440;-2.054;2023-04-03T02:07:11;101764.69;;;2.56;75.78
77023;BME280;65952;51.440;-2.054;2023-04-03T02:09:36;101774.69;;;2.51;75.88
77023;BME280;65952;51.440;-2.054;2023-04-03T02:12:02;101774.94;;;2.47;75.97
77023;BME280;65952;51.440;-2.054;2023-04-03T02:14:28;101772.75;;;2.37;76.03
77023;BME280;65952;51.440;-2.054;2023-04-03T02:16:53;101776.81;;;2.27;76.06
77023;BME280;65952;51.440;-2.054;2023-04-03T02:19:19;101779.63;;;2.24;76.21
77023;BME280;65952;51.440;-2.054;2023-04-03T02:21:44;101781.88;;;2.14;76.39
77023;BME280;65952;51.440;-2.054;2023-04-03T02:24:10;101779.53;;;2.08;76.58
77023;BME280;65952;51.440;-2.054;2023-04-03T02:26:35;101783.50;;;1.99;76.69
77023;BME280;65952;51.440;-2.054;2023-04-03T02:29:00;101779.22;;;1.97;76.95
77023;BME280;65952;51.440;-2.054;2023-04-03T02:31:26;101780.28;;;1.92;77.10
77023;BME280;65952;51.440;-2.054;2023-04-03T02:33:51;101777.00;;;1.87;77.26
77023;BME280;65952;51.440;-2.054;2023-04-03T02:36:17;101781.91;;;1.77;77.26
77023;BME280;65952;51.440;-2.054;2023-04-03T02:38:43;101782.22;;;1.71;77.25
77023;BME280;65952;51.440;-2.054;2023-04-03T02:41:10;101782.41;;;1.67;77.51
77023;BME280;65952;51.440;-2.054;2023-04-03T02:43:36;101777.19;;;1.65;77.86
77023;BME280;65952;51.440;-2.054;2023-04-03T02:46:02;101778.25;;;1.61;78.18
77023;BME280;65952;51.440;-2.054;2023-04-03T02:48:28;101780.28;;;1.56;78.22
77023;BME280;65952;51.440;-2.054;2023-04-03T02:50:53;101776.88;;;1.54;78.36
77023;BME280;65952;51.440;-2.054;2023-04-03T02:53:19;101781.53;;;1.49;78.52
77023;BME280;65952;51.440;-2.054;2023-04-03T02:55:45;101788.59;;;1.48;78.70
77023;BME280;65952;51.440;-2.054;2023-04-03T02:58:10;101785.00;;;1.49;78.69
77023;BME280;65952;51.440;-2.054;2023-04-03T03:00:36;101788.88;;;1.42;78.97
77023;BME280;65952;51.440;-2.054;2023-04-03T03:03:02;101790.75;;;1.40;79.15
77023;BME280;65952;51.440;-2.054;2023-04-03T03:05:28;101784.81;;;1.35;79.29
77023;BME280;65952;51.440;-2.054;2023-04-03T03:07:54;101785.81;;;1.32;79.33
77023;BME280;65952;51.440;-2.054;2023-04-03T03:10:19;101779.81;;;1.28;79.26
77023;BME280;65952;51.440;-2.054;2023-04-03T03:12:45;101774.81;;;1.22;79.30
77023;BME280;65952;51.440;-2.054;2023-04-03T03:15:11;101774.09;;;1.19;79.37
77023;BME280;65952;51.440;-2.054;2023-04-03T03:17:36;101771.66;;;1.14;79.23
77023;BME280;65952;51.440;-2.054;2023-04-03T03:20:04;101768.44;;;1.07;79.44
77023;BME280;65952;51.440;-2.054;2023-04-03T03:22:30;101782.66;;;1.05;79.56
77023;BME280;65952;51.440;-2.054;2023-04-03T03:24:55;101775.78;;;1.01;79.48
77023;BME280;65952;51.440;-2.054;2023-04-03T03:27:21;101772.28;;;1.00;79.41
77023;BME280;65952;51.440;-2.054;2023-04-03T03:29:46;101778.41;;;1.01;79.66
77023;BME280;65952;51.440;-2.054;2023-04-03T03:32:12;101778.50;;;0.99;79.72
77023;BME280;65952;51.440;-2.054;2023-04-03T03:34:37;101776.13;;;0.93;79.87
77023;BME280;65952;51.440;-2.054;2023-04-03T03:37:03;101785.94;;;0.91;79.86
77023;BME280;65952;51.440;-2.054;2023-04-03T03:39:28;101774.63;;;0.87;79.92
77023;BME280;65952;51.440;-2.054;2023-04-03T03:41:53;101778.34;;;0.83;80.03
77023;BME280;65952;51.440;-2.054;2023-04-03T03:44:20;101773.91;;;0.84;80.10
77023;BME280;65952;51.440;-2.054;2023-04-03T03:46:45;101774.97;;;0.79;80.13
77023;BME280;65952;51.440;-2.054;2023-04-03T03:49:11;101782.91;;;0.79;80.10
77023;BME280;65952;51.440;-2.054;2023-04-03T03:51:37;101778.63;;;0.77;79.88
77023;BME280;65952;51.440;-2.054;2023-04-03T03:54:03;101780.63;;;0.72;79.94
77023;BME280;65952;51.440;-2.054;2023-04-03T03:56:29;101773.72;;;0.68;79.89
77023;BME280;65952;51.440;-2.054;2023-04-03T03:58:54;101776.44;;;0.66;80.07
77023;BME280;65952;51.440;-2.054;2023-04-03T04:01:21;101778.44;;;0.61;80.08
77023;BME280;65952;51.440;-2.054;2023-04-03T04:03:47;101773.16;;;0.61;80.22
77023;BME280;65952;51.440;-2.054;2023-04-03T04:06:13;101773.22;;;0.59;80.24
77023;BME280;65952;51.440;-2.054;2023-04-03T04:08:38;101774.00;;;0.61;80.51
77023;BME280;65952;51.440;-2.054;2023-04-03T04:11:04;101767.72;;;0.64;80.39
77023;BME280;65952;51.440;-2.054;2023-04-03T04:13:29;101774.91;;;0.60;80.29
77023;BME280;65952;51.440;-2.054;2023-04-03T04:15:55;101770.44;;;0.62;80.11
77023;BME280;65952;51.440;-2.054;2023-04-03T04:18:20;101771.50;;;0.58;80.32
77023;BME280;65952;51.440;-2.054;2023-04-03T04:20:46;101769.97;;;0.53;80.13
77023;BME280;65952;51.440;-2.054;2023-04-03T04:23:11;101771.03;;;0.48;80.32
77023;BME280;65952;51.440;-2.054;2023-04-03T04:25:37;101769.53;;;0.43;80.25
77023;BME280;65952;51.440;-2.054;2023-04-03T04:28:02;101771.38;;;0.41;80.35
77023;BME280;65952;51.440;-2.054;2023-04-03T04:30:28;101768.91;;;0.36;80.25
77023;BME280;65952;51.440;-2.054;2023-04-03T04:32:53;101771.63;;;0.35;80.23
77023;BME280;65952;51.440;-2.054;2023-04-03T04:35:19;101771.72;;;0.33;80.30
77023;BME280;65952;51.440;-2.054;2023-04-03T04:37:44;101759.34;;;0.34;80.32
77023;BME280;65952;51.440;-2.054;2023-04-03T04:40:10;101761.88;;;0.37;80.52
77023;BME280;65952;51.440;-2.054;2023-04-03T04:42:35;101763.06;;;0.29;80.50
77023;BME280;65952;51.440;-2.054;2023-04-03T04:45:01;101764.03;;;0.27;80.49
77023;BME280;65952;51.440;-2.054;2023-04-03T04:47:28;101762.16;;;0.29;80.58
77023;BME280;65952;51.440;-2.054;2023-04-03T04:49:53;101758.13;;;0.20;80.65
77023;BME280;65952;51.440;-2.054;2023-04-03T04:52:19;101759.09;;;0.19;80.67
77023;BME280;65952;51.440;-2.054;2023-04-03T04:54:44;101767.13;;;0.16;80.69
77023;BME280;65952;51.440;-2.054;2023-04-03T04:57:10;101762.91;;;0.12;80.71
77023;BME280;65952;51.440;-2.054;2023-04-03T04:59:36;101760.25;;;0.12;80.59
77023;BME280;65952;51.440;-2.054;2023-04-03T05:02:01;101762.97;;;0.10;80.67
77023;BME280;65952;51.440;-2.054;2023-04-03T05:04:26;101763.97;;;0.08;80.53
77023;BME280;65952;51.440;-2.054;2023-04-03T05:06:52;101757.06;;;0.04;80.63
77023;BME280;65952;51.440;-2.054;2023-04-03T05:09:17;101760.59;;;0.04;80.69
77023;BME280;65952;51.440;-2.054;2023-04-03T05:11:45;101757.31;;;-0.03;80.76
77023;BME280;65952;51.440;-2.054;2023-04-03T05:14:10;101762.69;;;-0.04;80.73
77023;BME280;65952;51.440;-2.054;2023-04-03T05:16:36;101761.94;;;-0.08;80.72
77023;BME280;65952;51.440;-2.054;2023-04-03T05:19:01;101763.81;;;-0.10;80.71
77023;BME280;65952;51.440;-2.054;2023-04-03T05:21:26;101770.84;;;-0.10;80.69
77023;BME280;65952;51.440;-2.054;2023-04-03T05:23:56;101771.84;;;-0.13;80.55
77023;BME280;65952;51.440;-2.054;2023-04-03T05:26:22;101769.25;;;-0.14;80.73
77023;BME280;65952;51.440;-2.054;2023-04-03T05:28:47;101766.69;;;-0.16;80.80
77023;BME280;65952;51.440;-2.054;2023-04-03T05:31:13;101763.19;;;-0.17;80.97
77023;BME280;65952;51.440;-2.054;2023-04-03T05:33:38;101765.81;;;-0.17;81.07
77023;BME280;65952;51.440;-2.054;2023-04-03T05:36:05;101756.91;;;-0.14;81.20
77023;BME280;65952;51.440;-2.054;2023-04-03T05:38:31;101763.84;;;-0.11;81.15
77023;BME280;65952;51.440;-2.054;2023-04-03T05:40:56;101767.44;;;-0.12;81.11
77023;BME280;65952;51.440;-2.054;2023-04-03T05:43:22;101766.94;;;0.00;81.46
77023;BME280;65952;51.440;-2.054;2023-04-03T05:45:47;101762.25;;;0.07;81.35
77023;BME280;65952;51.440;-2.054;2023-04-03T05:48:13;101762.97;;;0.10;81.49
77023;BME280;65952;51.440;-2.054;2023-04-03T05:50:38;101762.97;;;0.10;81.49
77023;BME280;65952;51.440;-2.054;2023-04-03T05:53:07;101757.22;;;0.21;81.39
77023;BME280;65952;51.440;-2.054;2023-04-03T05:55:39;101759.88;;;0.42;81.73
77023;BME280;65952;51.440;-2.054;2023-04-03T05:58:04;101767.53;;;0.48;81.52
77023;BME280;65952;51.440;-2.054;2023-04-03T06:00:30;101762.19;;;0.50;81.39
77023;BME280;65952;51.440;-2.054;2023-04-03T06:02:56;101760.50;;;0.68;80.97
77023;BME280;65952;51.440;-2.054;2023-04-03T06:05:21;101770.72;;;0.75;80.53
77023;BME280;65952;51.440;-2.054;2023-04-03T06:07:47;101756.53;;;0.78;80.28
77023;BME280;65952;51.440;-2.054;2023-04-03T06:10:14;101764.59;;;0.75;80.38
77023;BME280;65952;51.440;-2.054;2023-04-03T06:12:39;101752.22;;;0.75;80.50
77023;BME280;65952;51.440;-2.054;2023-04-03T06:15:05;101754.81;;;0.77;80.37
77023;BME280;65952;51.440;-2.054;2023-04-03T06:17:33;101755.59;;;0.79;80.35
77023;BME280;65952;51.440;-2.054;2023-04-03T06:19:58;101760.91;;;0.98;79.79
77023;BME280;65952;51.440;-2.054;2023-04-03T06:22:24;101759.06;;;1.19;79.10
77023;BME280;65952;51.440;-2.054;2023-04-03T06:24:50;101746.34;;;1.27;78.80
77023;BME280;65952;51.440;-2.054;2023-04-03T06:27:16;101746.19;;;1.30;78.76
77023;BME280;65952;51.440;-2.054;2023-04-03T06:29:41;101739.03;;;1.33;78.95
77023;BME280;65952;51.440;-2.054;2023-04-03T06:32:07;101743.41;;;1.34;79.07
77023;BME280;65952;51.440;-2.054;2023-04-03T06:34:32;101749.19;;;1.42;79.11
77023;BME280;65952;51.440;-2.054;2023-04-03T06:36:58;101742.75;;;1.48;78.96
77023;BME280;65952;51.440;-2.054;2023-04-03T06:39:24;101746.16;;;1.50;79.06
77023;BME280;65952;51.440;-2.054;2023-04-03T06:41:50;101742.47;;;1.54;79.31
77023;BME280;65952;51.440;-2.054;2023-04-03T06:44:15;101742.72;;;1.67;79.51
77023;BME280;65952;51.440;-2.054;2023-04-03T06:46:41;101751.38;;;1.88;79.17
77023;BME280;65952;51.440;-2.054;2023-04-03T06:49:07;101743.91;;;2.14;79.02
77023;BME280;65952;51.440;-2.054;2023-04-03T06:51:33;101745.84;;;2.45;78.36
77023;BME280;65952;51.440;-2.054;2023-04-03T06:53:59;101748.06;;;2.70;76.73
77023;BME280;65952;51.440;-2.054;2023-04-03T06:56:26;101749.34;;;3.13;74.23
77023;BME280;65952;51.440;-2.054;2023-04-03T06:58:53;101748.41;;;3.14;73.95
77023;BME280;65952;51.440;-2.054;2023-04-03T07:01:20;101745.63;;;2.99;74.64
77023;BME280;65952;51.440;-2.054;2023-04-03T07:03:46;101746.59;;;2.65;75.76
77023;BME280;65952;51.440;-2.054;2023-04-03T07:06:14;101755.81;;;2.57;75.80
77023;BME280;65952;51.440;-2.054;2023-04-03T07:08:40;101746.44;;;2.50;75.87
77023;BME280;65952;51.440;-2.054;2023-04-03T07:11:07;101756.13;;;2.51;75.91
77023;BME280;65952;51.440;-2.054;2023-04-03T07:13:33;101750.91;;;2.50;76.18
77023;BME280;65952;51.440;-2.054;2023-04-03T07:15:59;101746.06;;;2.58;75.72
77023;BME280;65952;51.440;-2.054;2023-04-03T07:18:25;101755.72;;;2.59;76.21
77023;BME280;65952;51.440;-2.054;2023-04-03T07:20:50;101755.50;;;2.64;76.17
77023;BME280;65952;51.440;-2.054;2023-04-03T07:23:16;101752.84;;;2.64;76.39
77023;BME280;65952;51.440;-2.054;2023-04-03T07:25:43;101744.50;;;2.87;75.48
77023;BME280;65952;51.440;-2.054;2023-04-03T07:28:09;101754.13;;;3.22;74.36
77023;BME280;65952;51.440;-2.054;2023-04-03T07:30:34;101762.72;;;3.59;73.65
77023;BME280;65952;51.440;-2.054;2023-04-03T07:33:07;101748.84;;;4.00;71.86
77023;BME280;65952;51.440;-2.054;2023-04-03T07:35:32;101750.25;;;4.36;71.48
77023;BME280;65952;51.440;-2.054;2023-04-03T07:37:58;101750.56;;;5.04;68.99
77023;BME280;65952;51.440;-2.054;2023-04-03T07:40:23;101745.47;;;5.43;66.49
77023;BME280;65952;51.440;-2.054;2023-04-03T07:42:48;101746.38;;;5.83;65.91
77023;BME280;65952;51.440;-2.054;2023-04-03T07:45:15;101749.09;;;5.96;65.38
77023;BME280;65952;51.440;-2.054;2023-04-03T07:47:43;101743.97;;;6.72;63.41
77023;BME280;65952;51.440;-2.054;2023-04-03T07:50:08;101753.81;;;7.22;61.77
77023;BME280;65952;51.440;-2.054;2023-04-03T07:52:34;101744.25;;;8.97;56.96
77023;BME280;65952;51.440;-2.054;2023-04-03T07:54:59;101742.00;;;10.55;52.31
77023;BME280;65952;51.440;-2.054;2023-04-03T07:57:24;101743.63;;;10.98;51.18
77023;BME280;65952;51.440;-2.054;2023-04-03T07:59:50;101729.94;;;11.91;48.50
77023;BME280;65952;51.440;-2.054;2023-04-03T08:02:15;101728.69;;;13.00;45.66
77023;BME280;65952;51.440;-2.054;2023-04-03T08:04:41;101741.72;;;13.32;43.90
77023;BME280;65952;51.440;-2.054;2023-04-03T08:07:06;101733.22;;;13.37;43.55
77023;BME280;65952;51.440;-2.054;2023-04-03T08:09:32;101730.31;;;14.03;43.24
77023;BME280;65952;51.440;-2.054;2023-04-03T08:11:58;101734.16;;;14.97;40.38
77023;BME280;65952;51.440;-2.054;2023-04-03T08:14:23;101732.53;;;16.05;39.00
77023;BME280;65952;51.440;-2.054;2023-04-03T08:16:49;101730.53;;;15.99;38.27
77023;BME280;65952;51.440;-2.054;2023-04-03T08:19:15;101726.09;;;16.31;37.80
77023;BME280;65952;51.440;-2.054;2023-04-03T08:21:42;101729.44;;;15.67;38.61
77023;BME280;65952;51.440;-2.054;2023-04-03T08:24:08;101724.66;;;15.36;39.30
77023;BME280;65952;51.440;-2.054;2023-04-03T08:26:34;101721.22;;;15.25;40.20
77023;BME280;65952;51.440;-2.054;2023-04-03T08:29:00;101723.41;;;15.98;39.17
77023;BME280;65952;51.440;-2.054;2023-04-03T08:31:25;101717.63;;;16.90;37.23
77023;BME280;65952;51.440;-2.054;2023-04-03T08:33:50;101709.88;;;17.27;35.80
77023;BME280;65952;51.440;-2.054;2023-04-03T08:36:22;101709.44;;;17.15;36.46
77023;BME280;65952;51.440;-2.054;2023-04-03T08:38:49;101717.91;;;17.43;35.15
77023;BME280;65952;51.440;-2.054;2023-04-03T08:41:20;101718.41;;;17.47;36.11
77023;BME280;65952;51.440;-2.054;2023-04-03T08:46:22;101711.34;;;18.30;34.34
77023;BME280;65952;51.440;-2.054;2023-04-03T08:48:50;101715.00;;;18.52;33.90
77023;BME280;65952;51.440;-2.054;2023-04-03T08:51:19;101719.16;;;18.78;32.91
77023;BME280;65952;51.440;-2.054;2023-04-03T08:54:16;101719.69;;;18.59;33.82
77023;BME280;65952;51.440;-2.054;2023-04-03T08:56:45;101709.66;;;18.44;33.56
77023;BME280;65952;51.440;-2.054;2023-04-03T08:59:24;101712.94;;;18.01;34.63
77023;BME280;65952;51.440;-2.054;2023-04-03T09:01:52;101710.88;;;18.03;34.21
77023;BME280;65952;51.440;-2.054;2023-04-03T09:04:18;101701.03;;;18.56;32.95
77023;BME280;65952;51.440;-2.054;2023-04-03T09:06:49;101709.94;;;18.49;33.77
77023;BME280;65952;51.440;-2.054;2023-04-03T09:09:39;101699.91;;;17.74;33.98
77023;BME280;65952;51.440;-2.054;2023-04-03T09:14:50;101708.47;;;18.62;32.14
77023;BME280;65952;51.440;-2.054;2023-04-03T09:22:54;101706.03;;;19.92;30.53
77023;BME280;65952;51.440;-2.054;2023-04-03T09:27:47;101710.63;;;18.51;32.50
77023;BME280;65952;51.440;-2.054;2023-04-03T09:30:15;101702.63;;;17.97;32.66
77023;BME280;65952;51.440;-2.054;2023-04-03T09:32:41;101702.78;;;17.72;33.89
77023;BME280;65952;51.440;-2.054;2023-04-03T09:35:16;101706.34;;;16.70;35.32
77023;BME280;65952;51.440;-2.054;2023-04-03T09:37:45;101700.66;;;16.48;36.47
77023;BME280;65952;51.440;-2.054;2023-04-03T09:42:52;101712.91;;;15.95;37.77
77023;BME280;65952;51.440;-2.054;2023-04-03T09:45:24;101696.75;;;14.84;38.93
77023;BME280;65952;51.440;-2.054;2023-04-03T09:55:53;101705.59;;;14.42;39.62
77023;BME280;65952;51.440;-2.054;2023-04-03T09:58:28;101697.78;;;14.30;40.19
77023;BME280;65952;51.440;-2.054;2023-04-03T10:01:02;101700.34;;;15.01;39.17
77023;BME280;65952;51.440;-2.054;2023-04-03T10:03:31;101702.53;;;14.98;39.72
77023;BME280;65952;51.440;-2.054;2023-04-03T10:05:58;101696.28;;;15.56;39.23
77023;BME280;65952;51.440;-2.054;2023-04-03T10:08:33;101701.34;;;15.51;38.83
77023;BME280;65952;51.440;-2.054;2023-04-03T10:11:15;101701.09;;;14.77;38.99
77023;BME280;65952;51.440;-2.054;2023-04-03T10:13:58;101697.31;;;14.17;40.63
77023;BME280;65952;51.440;-2.054;2023-04-03T10:16:35;101696.19;;;15.15;40.13
77023;BME280;65952;51.440;-2.054;2023-04-03T10:29:24;101695.41;;;14.62;39.78
77023;BME280;65952;51.440;-2.054;2023-04-03T10:32:02;101698.94;;;13.65;41.17
77023;BME280;65952;51.440;-2.054;2023-04-03T10:34:38;101710.72;;;12.63;43.54
77023;BME280;65952;51.440;-2.054;2023-04-03T10:37:12;101700.38;;;12.86;44.57
77023;BME280;65952;51.440;-2.054;2023-04-03T10:48:56;101689.28;;;14.78;39.74
77023;BME280;65952;51.440;-2.054;2023-04-03T10:53:44;101685.97;;;14.92;39.22
77023;BME280;65952;51.440;-2.054;2023-04-03T10:57:00;101682.19;;;14.77;41.17
77023;BME280;65952;51.440;-2.054;2023-04-03T10:59:35;101687.59;;;14.77;39.80
77023;BME280;65952;51.440;-2.054;2023-04-03T11:02:06;101684.31;;;15.08;40.48
77023;BME280;65952;51.440;-2.054;2023-04-03T11:04:39;101675.34;;;14.38;41.03
77023;BME280;65952;51.440;-2.054;2023-04-03T11:07:18;101681.84;;;13.29;43.78
77023;BME280;65952;51.440;-2.054;2023-04-03T11:09:49;101678.03;;;13.04;43.09
77023;BME280;65952;51.440;-2.054;2023-04-03T11:12:24;101669.34;;;12.82;44.51
77023;BME280;65952;51.440;-2.054;2023-04-03T11:14:52;101682.81;;;12.54;45.77
77023;BME280;65952;51.440;-2.054;2023-04-03T11:22:45;101672.25;;;12.98;45.14
77023;BME280;65952;51.440;-2.054;2023-04-03T11:27:57;101657.88;;;13.98;43.03
77023;BME280;65952;51.440;-2.054;2023-04-03T11:36:22;101657.78;;;14.34;44.13
77023;BME280;65952;51.440;-2.054;2023-04-03T11:38:52;101663.47;;;14.05;41.59
77023;BME280;65952;51.440;-2.054;2023-04-03T11:41:28;101657.69;;;13.55;43.32
77023;BME280;65952;51.440;-2.054;2023-04-03T12:05:57;101638.84;;;14.60;41.12
77023;BME280;65952;51.440;-2.054;2023-04-03T12:16:27;101621.59;;;13.38;43.78
77023;BME280;65952;51.440;-2.054;2023-04-03T12:18:55;101629.31;;;13.51;43.04
77023;BME280;65952;51.440;-2.054;2023-04-03T12:26:48;101613.94;;;13.15;43.01
77023;BME280;65952;51.440;-2.054;2023-04-03T12:41:11;101588.84;;;14.30;39.93
77023;BME280;65952;51.440;-2.054;2023-04-03T12:43:54;101581.88;;;14.54;39.86
77023;BME280;65952;51.440;-2.054;2023-04-03T12:46:32;101588.97;;;13.68;42.24
77023;BME280;65952;51.440;-2.054;2023-04-03T12:49:01;101581.19;;;13.10;44.32
77023;BME280;65952;51.440;-2.054;2023-04-03T12:51:40;101587.66;;;12.54;45.84
77023;BME280;65952;51.440;-2.054;2023-04-03T12:54:19;101590.78;;;12.21;45.16
77023;BME280;65952;51.440;-2.054;2023-04-03T12:56:47;101591.41;;;12.71;45.03
77023;BME280;65952;51.440;-2.054;2023-04-03T12:59:24;101585.81;;;13.18;45.34
77023;BME280;65952;51.440;-2.054;2023-04-03T13:01:58;101576.28;;;13.42;42.32
77023;BME280;65952;51.440;-2.054;2023-04-03T13:04:26;101569.84;;;13.61;43.39
77023;BME280;65952;51.440;-2.054;2023-04-03T13:06:52;101577.44;;;13.39;43.39
77023;BME280;65952;51.440;-2.054;2023-04-03T13:09:26;101564.53;;;12.79;42.95
77023;BME280;65952;51.440;-2.054;2023-04-03T13:12:13;101565.34;;;13.07;44.25
77023;BME280;65952;51.440;-2.054;2023-04-03T13:14:40;101561.16;;;12.77;44.94
77023;BME280;65952;51.440;-2.054;2023-04-03T13:17:12;101567.13;;;13.35;44.63
77023;BME280;65952;51.440;-2.054;2023-04-03T13:19:39;101560.22;;;13.76;42.58
77023;BME280;65952;51.440;-2.054;2023-04-03T13:22:11;101553.81;;;14.12;41.46
77023;BME280;65952;51.440;-2.054;2023-04-03T13:24:42;101563.56;;;13.78;43.21
77023;BME280;65952;51.440;-2.054;2023-04-03T13:27:11;101564.34;;;13.89;42.28
77023;BME280;65952;51.440;-2.054;2023-04-03T13:29:38;101564.00;;;13.92;42.90
77023;BME280;65952;51.440;-2.054;2023-04-03T13:32:05;101551.81;;;14.14;42.75
77023;BME280;65952;51.440;-2.054;2023-04-03T13:34:42;101548.03;;;14.33;41.87
77023;BME280;65952;51.440;-2.054;2023-04-03T13:37:20;101540.22;;;14.22;43.81
77023;BME280;65952;51.440;-2.054;2023-04-03T13:40:14;101544.03;;;14.11;41.55
77023;BME280;65952;51.440;-2.054;2023-04-03T13:42:41;101545.28;;;14.25;41.11
77023;BME280;65952;51.440;-2.054;2023-04-03T13:47:40;101539.59;;;14.02;41.96
77023;BME280;65952;51.440;-2.054;2023-04-03T13:52:54;101535.75;;;13.78;42.13
77023;BME280;65952;51.440;-2.054;2023-04-03T13:55:31;101527.19;;;13.38;44.01
77023;BME280;65952;51.440;-2.054;2023-04-03T13:57:58;101531.69;;;12.93;43.81
77023;BME280;65952;51.440;-2.054;2023-04-03T14:02:55;101525.81;;;13.16;46.23
77023;BME280;65952;51.440;-2.054;2023-04-03T14:05:22;101520.97;;;13.38;45.75
77023;BME280;65952;51.440;-2.054;2023-04-03T14:07:49;101516.78;;;13.70;43.29
77023;BME280;65952;51.440;-2.054;2023-04-03T14:10:14;101508.25;;;14.09;43.92
77023;BME280;65952;51.440;-2.054;2023-04-03T14:12:40;101507.38;;;13.47;45.61
77023;BME280;65952;51.440;-2.054;2023-04-03T14:15:19;101516.78;;;13.70;46.03
77023;BME280;65952;51.440;-2.054;2023-04-03T14:17:45;101508.84;;;13.42;43.43
77023;BME280;65952;51.440;-2.054;2023-04-03T14:20:20;101502.38;;;13.53;44.81
77023;BME280;65952;51.440;-2.054;2023-04-03T14:22:47;101518.75;;;13.59;44.02
77023;BME280;65952;51.440;-2.054;2023-04-03T14:25:12;101494.16;;;13.89;43.80
77023;BME280;65952;51.440;-2.054;2023-04-03T14:27:44;101500.22;;;13.91;42.67
77023;BME280;65952;51.440;-2.054;2023-04-03T14:30:20;101497.97;;;13.78;43.46
77023;BME280;65952;51.440;-2.054;2023-04-03T14:32:46;101496.28;;;13.32;44.17
77023;BME280;65952;51.440;-2.054;2023-04-03T14:35:12;101490.25;;;13.57;44.29
77023;BME280;65952;51.440;-2.054;2023-04-03T14:37:38;101479.00;;;13.17;44.51
77023;BME280;65952;51.440;-2.054;2023-04-03T14:40:05;101493.59;;;13.32;43.75
77023;BME280;65952;51.440;-2.054;2023-04-03T14:42:33;101489.09;;;12.97;45.38
77023;BME280;65952;51.440;-2.054;2023-04-03T14:45:00;101482.41;;;12.83;45.82
77023;BME280;65952;51.440;-2.054;2023-04-03T14:47:27;101477.44;;;13.14;44.15
77023;BME280;65952;51.440;-2.054;2023-04-03T14:49:53;101479.97;;;13.16;44.26
77023;BME280;65952;51.440;-2.054;2023-04-03T14:52:33;101480.03;;;13.24;45.88
77023;BME280;65952;51.440;-2.054;2023-04-03T14:54:59;101480.56;;;13.46;45.28
77023;BME280;65952;51.440;-2.054;2023-04-03T14:57:27;101474.00;;;13.75;43.81
77023;BME280;65952;51.440;-2.054;2023-04-03T14:59:53;101475.56;;;13.86;43.64